sensor_id;sensor_type;location;lat;lon;timestamp;P1;durP1;ratioP1;P2;durP2;ratioP2
26742;SDS011;14341;51.256;22.478;2023-03-20T00:00:27;190.07;;;101.35;;
26742;SDS011;14341;51.256;22.478;2023-03-20T00:03:32;203.30;;;103.18;;
26742;SDS011;14341;51.256;22.478;2023-03-20T00:06:35;200.95;;;102.45;;
26742;SDS011;14341;51.256;22.478;2023-03-20T00:09:39;234.95;;;107.15;;
26742;SDS011;14341;51.256;22.478;2023-03-20T00:12:44;201.20;;;103.22;;
26742;SDS011;14341;51.256;22.478;2023-03-20T00:15:49;196.40;;;101.70;;
26742;SDS011;14341;51.256;22.478;2023-03-20T00:18:52;221.68;;;106.53;;
26742;SDS011;14341;51.256;22.478;2023-03-20T00:21:56;206.02;;;100.93;;
26742;SDS011;14341;51.256;22.478;2023-03-20T00:25:00;204.75;;;103.82;;
26742;SDS011;14341;51.256;22.478;2023-03-20T00:28:07;203.05;;;101.70;;
26742;SDS011;14341;51.256;22.478;2023-03-20T00:31:30;184.98;;;98.82;;
26742;SDS011;14341;51.256;22.478;2023-03-20T00:34:35;193.05;;;102.93;;
26742;SDS011;14341;51.256;22.478;2023-03-20T00:37:39;194.18;;;99.15;;
26742;SDS011;14341;51.256;22.478;2023-03-20T00:40:42;192.93;;;98.88;;
26742;SDS011;14341;51.256;22.478;2023-03-20T00:43:48;193.13;;;99.95;;
26742;SDS011;14341;51.256;22.478;2023-03-20T00:46:54;191.00;;;99.68;;
26742;SDS011;14341;51.256;22.478;2023-03-20T00:50:00;189.50;;;97.68;;
26742;SDS011;14341;51.256;22.478;2023-03-20T00:53:08;187.43;;;98.47;;
26742;SDS011;14341;51.256;22.478;2023-03-20T00:56:19;185.52;;;97.25;;
26742;SDS011;14341;51.256;22.478;2023-03-20T00:59:33;189.90;;;96.50;;
26742;SDS011;14341;51.256;22.478;2023-03-20T01:02:39;190.20;;;94.82;;
26742;SDS011;14341;51.256;22.478;2023-03-20T01:05:43;180.27;;;95.85;;
26742;SDS011;14341;51.256;22.478;2023-03-20T01:08:47;183.50;;;94.30;;
26742;SDS011;14341;51.256;22.478;2023-03-20T01:11:51;184.85;;;95.40;;
26742;SDS011;14341;51.256;22.478;2023-03-20T01:14:56;162.68;;;90.68;;
26742;SDS011;14341;51.256;22.478;2023-03-20T01:18:00;174.85;;;90.63;;
26742;SDS011;14341;51.256;22.478;2023-03-20T01:21:03;167.57;;;89.45;;
26742;SDS011;14341;51.256;22.478;2023-03-20T01:24:07;174.05;;;90.57;;
26742;SDS011;14341;51.256;22.478;2023-03-20T01:27:11;168.73;;;89.43;;
26742;SDS011;14341;51.256;22.478;2023-03-20T01:30:19;181.15;;;92.05;;
26742;SDS011;14341;51.256;22.478;2023-03-20T01:33:23;163.90;;;86.97;;
26742;SDS011;14341;51.256;22.478;2023-03-20T01:36:29;168.40;;;89.28;;
26742;SDS011;14341;51.256;22.478;2023-03-20T01:39:32;178.23;;;89.82;;
26742;SDS011;14341;51.256;22.478;2023-03-20T01:42:38;166.55;;;86.15;;
26742;SDS011;14341;51.256;22.478;2023-03-20T01:45:46;165.30;;;87.55;;
26742;SDS011;14341;51.256;22.478;2023-03-20T01:48:58;166.90;;;88.00;;
26742;SDS011;14341;51.256;22.478;2023-03-20T01:55:10;167.60;;;88.75;;
26742;SDS011;14341;51.256;22.478;2023-03-20T01:58:15;166.93;;;88.45;;
26742;SDS011;14341;51.256;22.478;2023-03-20T02:01:24;161.60;;;87.88;;
26742;SDS011;14341;51.256;22.478;2023-03-20T02:04:30;158.73;;;82.53;;
26742;SDS011;14341;51.256;22.478;2023-03-20T02:07:46;163.40;;;86.55;;
26742;SDS011;14341;51.256;22.478;2023-03-20T02:10:53;164.13;;;86.00;;
26742;SDS011;14341;51.256;22.478;2023-03-20T02:14:01;154.32;;;84.82;;
26742;SDS011;14341;51.256;22.478;2023-03-20T02:17:15;151.50;;;81.93;;
26742;SDS011;14341;51.256;22.478;2023-03-20T02:20:29;144.05;;;78.43;;
26742;SDS011;14341;51.256;22.478;2023-03-20T02:27:29;140.02;;;78.35;;
26742;SDS011;14341;51.256;22.478;2023-03-20T02:30:45;154.38;;;81.53;;
26742;SDS011;14341;51.256;22.478;2023-03-20T02:34:28;147.48;;;76.97;;
26742;SDS011;14341;51.256;22.478;2023-03-20T02:38:02;148.73;;;78.65;;
26742;SDS011;14341;51.256;22.478;2023-03-20T02:41:25;153.00;;;80.00;;
26742;SDS011;14341;51.256;22.478;2023-03-20T02:44:32;142.60;;;80.63;;
26742;SDS011;14341;51.256;22.478;2023-03-20T02:47:46;144.73;;;77.78;;
26742;SDS011;14341;51.256;22.478;2023-03-20T02:50:56;141.90;;;78.78;;
26742;SDS011;14341;51.256;22.478;2023-03-20T02:54:09;137.82;;;77.68;;
26742;SDS011;14341;51.256;22.478;2023-03-20T02:57:21;141.57;;;78.22;;
26742;SDS011;14341;51.256;22.478;2023-03-20T03:04:07;140.20;;;78.60;;
26742;SDS011;14341;51.256;22.478;2023-03-20T03:07:14;146.88;;;78.18;;
26742;SDS011;14341;51.256;22.478;2023-03-20T03:10:24;146.10;;;77.88;;
26742;SDS011;14341;51.256;22.478;2023-03-20T03:13:32;102.53;;;56.53;;
26742;SDS011;14341;51.256;22.478;2023-03-20T03:16:39;144.27;;;78.45;;
26742;SDS011;14341;51.256;22.478;2023-03-20T03:19:43;143.10;;;76.90;;
26742;SDS011;14341;51.256;22.478;2023-03-20T03:22:48;147.95;;;78.68;;
26742;SDS011;14341;51.256;22.478;2023-03-20T03:25:53;147.65;;;79.78;;
26742;SDS011;14341;51.256;22.478;2023-03-20T03:28:59;136.80;;;76.45;;
26742;SDS011;14341;51.256;22.478;2023-03-20T03:32:18;144.77;;;77.90;;
26742;SDS011;14341;51.256;22.478;2023-03-20T03:35:25;138.43;;;75.13;;
26742;SDS011;14341;51.256;22.478;2023-03-20T03:38:29;136.80;;;74.00;;
26742;SDS011;14341;51.256;22.478;2023-03-20T03:44:47;139.65;;;75.85;;
26742;SDS011;14341;51.256;22.478;2023-03-20T03:47:59;142.27;;;77.20;;
26742;SDS011;14341;51.256;22.478;2023-03-20T03:51:08;144.50;;;78.70;;
26742;SDS011;14341;51.256;22.478;2023-03-20T03:54:28;147.50;;;79.30;;
26742;SDS011;14341;51.256;22.478;2023-03-20T03:58:02;143.98;;;81.45;;
26742;SDS011;14341;51.256;22.478;2023-03-20T04:01:09;161.93;;;83.28;;
26742;SDS011;14341;51.256;22.478;2023-03-20T04:04:16;149.25;;;78.63;;
26742;SDS011;14341;51.256;22.478;2023-03-20T04:07:22;156.93;;;79.82;;
26742;SDS011;14341;51.256;22.478;2023-03-20T04:10:29;142.70;;;76.70;;
26742;SDS011;14341;51.256;22.478;2023-03-20T04:13:33;141.23;;;74.72;;
26742;SDS011;14341;51.256;22.478;2023-03-20T04:16:36;141.65;;;72.82;;
26742;SDS011;14341;51.256;22.478;2023-03-20T04:19:40;135.70;;;72.45;;
26742;SDS011;14341;51.256;22.478;2023-03-20T04:22:43;133.32;;;70.88;;
26742;SDS011;14341;51.256;22.478;2023-03-20T04:25:48;128.10;;;70.40;;
26742;SDS011;14341;51.256;22.478;2023-03-20T04:28:53;130.30;;;70.93;;
26742;SDS011;14341;51.256;22.478;2023-03-20T04:32:13;128.82;;;68.63;;
26742;SDS011;14341;51.256;22.478;2023-03-20T04:35:32;126.85;;;68.88;;
26742;SDS011;14341;51.256;22.478;2023-03-20T04:38:40;126.00;;;67.57;;
26742;SDS011;14341;51.256;22.478;2023-03-20T04:41:44;126.85;;;67.70;;
26742;SDS011;14341;51.256;22.478;2023-03-20T04:44:49;126.35;;;70.07;;
26742;SDS011;14341;51.256;22.478;2023-03-20T04:47:52;129.25;;;71.13;;
26742;SDS011;14341;51.256;22.478;2023-03-20T04:50:56;135.65;;;72.28;;
26742;SDS011;14341;51.256;22.478;2023-03-20T04:54:13;126.72;;;70.35;;
26742;SDS011;14341;51.256;22.478;2023-03-20T04:57:17;119.00;;;67.45;;
26742;SDS011;14341;51.256;22.478;2023-03-20T05:00:22;129.48;;;70.82;;
26742;SDS011;14341;51.256;22.478;2023-03-20T05:03:25;133.25;;;69.65;;
26742;SDS011;14341;51.256;22.478;2023-03-20T05:06:29;122.13;;;67.25;;
26742;SDS011;14341;51.256;22.478;2023-03-20T05:09:33;128.75;;;70.80;;
26742;SDS011;14341;51.256;22.478;2023-03-20T05:12:38;121.32;;;67.30;;
26742;SDS011;14341;51.256;22.478;2023-03-20T05:16:01;122.43;;;66.03;;
26742;SDS011;14341;51.256;22.478;2023-03-20T05:19:15;118.93;;;66.05;;
26742;SDS011;14341;51.256;22.478;2023-03-20T05:22:27;130.98;;;68.35;;
26742;SDS011;14341;51.256;22.478;2023-03-20T05:25:45;122.82;;;69.55;;
26742;SDS011;14341;51.256;22.478;2023-03-20T05:29:06;124.55;;;67.90;;
26742;SDS011;14341;51.256;22.478;2023-03-20T05:32:34;129.85;;;67.18;;
26742;SDS011;14341;51.256;22.478;2023-03-20T05:35:54;120.78;;;65.38;;
26742;SDS011;14341;51.256;22.478;2023-03-20T05:39:08;120.68;;;66.13;;
26742;SDS011;14341;51.256;22.478;2023-03-20T05:42:32;123.28;;;65.93;;
26742;SDS011;14341;51.256;22.478;2023-03-20T05:45:50;129.48;;;64.60;;
26742;SDS011;14341;51.256;22.478;2023-03-20T05:49:15;115.32;;;61.90;;
26742;SDS011;14341;51.256;22.478;2023-03-20T05:52:21;120.00;;;63.88;;
26742;SDS011;14341;51.256;22.478;2023-03-20T05:55:51;123.95;;;63.15;;
26742;SDS011;14341;51.256;22.478;2023-03-20T05:59:23;121.88;;;62.97;;
26742;SDS011;14341;51.256;22.478;2023-03-20T06:02:45;121.68;;;61.03;;
26742;SDS011;14341;51.256;22.478;2023-03-20T06:06:20;117.18;;;62.03;;
26742;SDS011;14341;51.256;22.478;2023-03-20T06:09:25;108.20;;;58.88;;
26742;SDS011;14341;51.256;22.478;2023-03-20T06:12:29;114.50;;;60.25;;
26742;SDS011;14341;51.256;22.478;2023-03-20T06:15:33;119.38;;;61.75;;
26742;SDS011;14341;51.256;22.478;2023-03-20T06:18:45;123.05;;;61.63;;
26742;SDS011;14341;51.256;22.478;2023-03-20T06:21:51;100.63;;;55.95;;
26742;SDS011;14341;51.256;22.478;2023-03-20T06:24:55;108.65;;;56.15;;
26742;SDS011;14341;51.256;22.478;2023-03-20T06:28:06;89.63;;;53.10;;
26742;SDS011;14341;51.256;22.478;2023-03-20T06:31:09;91.35;;;51.45;;
26742;SDS011;14341;51.256;22.478;2023-03-20T06:34:12;87.95;;;49.75;;
26742;SDS011;14341;51.256;22.478;2023-03-20T06:37:20;88.82;;;50.55;;
26742;SDS011;14341;51.256;22.478;2023-03-20T06:40:25;84.25;;;46.78;;
26742;SDS011;14341;51.256;22.478;2023-03-20T06:43:29;90.70;;;46.92;;
26742;SDS011;14341;51.256;22.478;2023-03-20T06:46:33;80.60;;;45.42;;
26742;SDS011;14341;51.256;22.478;2023-03-20T06:49:37;74.88;;;42.42;;
26742;SDS011;14341;51.256;22.478;2023-03-20T06:52:42;76.97;;;41.85;;
26742;SDS011;14341;51.256;22.478;2023-03-20T06:56:12;74.93;;;42.05;;
26742;SDS011;14341;51.256;22.478;2023-03-20T06:59:15;73.45;;;42.63;;
26742;SDS011;14341;51.256;22.478;2023-03-20T07:02:19;70.10;;;40.58;;
26742;SDS011;14341;51.256;22.478;2023-03-20T07:05:23;70.95;;;42.67;;
26742;SDS011;14341;51.256;22.478;2023-03-20T07:08:30;67.50;;;40.05;;
26742;SDS011;14341;51.256;22.478;2023-03-20T07:11:35;68.43;;;39.15;;
26742;SDS011;14341;51.256;22.478;2023-03-20T07:14:39;68.82;;;38.60;;
26742;SDS011;14341;51.256;22.478;2023-03-20T07:17:47;66.63;;;39.22;;
26742;SDS011;14341;51.256;22.478;2023-03-20T07:20:51;126.22;;;63.78;;
26742;SDS011;14341;51.256;22.478;2023-03-20T07:23:56;271.17;;;132.75;;
26742;SDS011;14341;51.256;22.478;2023-03-20T07:26:59;379.50;;;193.43;;
26742;SDS011;14341;51.256;22.478;2023-03-20T07:30:04;142.85;;;73.05;;
26742;SDS011;14341;51.256;22.478;2023-03-20T07:33:09;62.58;;;37.03;;
26742;SDS011;14341;51.256;22.478;2023-03-20T07:36:13;60.70;;;35.78;;
26742;SDS011;14341;51.256;22.478;2023-03-20T07:39:18;60.70;;;35.58;;
26742;SDS011;14341;51.256;22.478;2023-03-20T07:42:55;65.38;;;38.47;;
26742;SDS011;14341;51.256;22.478;2023-03-20T07:46:18;69.15;;;34.63;;
26742;SDS011;14341;51.256;22.478;2023-03-20T07:49:22;63.53;;;35.90;;
26742;SDS011;14341;51.256;22.478;2023-03-20T07:52:26;60.92;;;34.63;;
26742;SDS011;14341;51.256;22.478;2023-03-20T07:55:31;57.83;;;33.40;;
26742;SDS011;14341;51.256;22.478;2023-03-20T07:58:34;57.33;;;34.20;;
26742;SDS011;14341;51.256;22.478;2023-03-20T08:01:37;58.50;;;32.78;;
26742;SDS011;14341;51.256;22.478;2023-03-20T08:04:43;47.80;;;30.83;;
26742;SDS011;14341;51.256;22.478;2023-03-20T08:07:48;52.75;;;32.08;;
26742;SDS011;14341;51.256;22.478;2023-03-20T08:10:56;49.88;;;30.13;;
26742;SDS011;14341;51.256;22.478;2023-03-20T08:14:02;53.33;;;31.33;;
26742;SDS011;14341;51.256;22.478;2023-03-20T08:17:11;50.10;;;30.40;;
26742;SDS011;14341;51.256;22.478;2023-03-20T08:20:19;50.30;;;29.10;;
26742;SDS011;14341;51.256;22.478;2023-03-20T08:23:23;46.35;;;27.33;;
26742;SDS011;14341;51.256;22.478;2023-03-20T08:26:28;54.58;;;29.35;;
26742;SDS011;14341;51.256;22.478;2023-03-20T08:29:35;48.88;;;29.10;;
26742;SDS011;14341;51.256;22.478;2023-03-20T08:32:46;44.47;;;25.85;;
26742;SDS011;14341;51.256;22.478;2023-03-20T08:35:55;55.95;;;30.48;;
26742;SDS011;14341;51.256;22.478;2023-03-20T08:39:03;86.13;;;47.40;;
26742;SDS011;14341;51.256;22.478;2023-03-20T08:42:12;73.25;;;42.00;;
26742;SDS011;14341;51.256;22.478;2023-03-20T08:45:16;76.70;;;44.00;;
26742;SDS011;14341;51.256;22.478;2023-03-20T08:48:53;68.10;;;36.13;;
26742;SDS011;14341;51.256;22.478;2023-03-20T08:52:50;58.50;;;34.13;;
26742;SDS011;14341;51.256;22.478;2023-03-20T08:55:53;68.15;;;34.92;;
26742;SDS011;14341;51.256;22.478;2023-03-20T08:59:00;35.83;;;20.90;;
26742;SDS011;14341;51.256;22.478;2023-03-20T09:02:03;37.50;;;22.15;;
26742;SDS011;14341;51.256;22.478;2023-03-20T09:05:08;46.08;;;28.27;;
26742;SDS011;14341;51.256;22.478;2023-03-20T09:08:18;51.13;;;28.75;;
26742;SDS011;14341;51.256;22.478;2023-03-20T09:11:24;47.42;;;28.98;;
26742;SDS011;14341;51.256;22.478;2023-03-20T09:14:30;49.67;;;29.90;;
26742;SDS011;14341;51.256;22.478;2023-03-20T09:17:34;43.15;;;25.33;;
26742;SDS011;14341;51.256;22.478;2023-03-20T09:20:38;45.72;;;26.38;;
26742;SDS011;14341;51.256;22.478;2023-03-20T09:23:42;55.78;;;30.92;;
26742;SDS011;14341;51.256;22.478;2023-03-20T09:26:45;55.25;;;31.98;;
26742;SDS011;14341;51.256;22.478;2023-03-20T09:29:50;45.70;;;29.45;;
26742;SDS011;14341;51.256;22.478;2023-03-20T09:32:53;38.55;;;22.25;;
26742;SDS011;14341;51.256;22.478;2023-03-20T09:35:57;39.33;;;22.92;;
26742;SDS011;14341;51.256;22.478;2023-03-20T09:39:00;52.53;;;26.95;;
26742;SDS011;14341;51.256;22.478;2023-03-20T09:42:06;50.47;;;28.88;;
26742;SDS011;14341;51.256;22.478;2023-03-20T09:45:21;44.38;;;26.33;;
26742;SDS011;14341;51.256;22.478;2023-03-20T09:48:38;47.38;;;29.08;;
26742;SDS011;14341;51.256;22.478;2023-03-20T09:51:48;42.28;;;25.38;;
26742;SDS011;14341;51.256;22.478;2023-03-20T09:54:55;44.10;;;24.45;;
26742;SDS011;14341;51.256;22.478;2023-03-20T09:58:04;39.10;;;24.02;;
26742;SDS011;14341;51.256;22.478;2023-03-20T10:01:15;44.88;;;26.13;;
26742;SDS011;14341;51.256;22.478;2023-03-20T10:04:20;39.97;;;24.58;;
26742;SDS011;14341;51.256;22.478;2023-03-20T10:07:25;39.40;;;24.58;;
26742;SDS011;14341;51.256;22.478;2023-03-20T10:10:30;35.97;;;23.17;;
26742;SDS011;14341;51.256;22.478;2023-03-20T10:13:50;36.20;;;23.17;;
26742;SDS011;14341;51.256;22.478;2023-03-20T10:17:12;34.22;;;21.90;;
26742;SDS011;14341;51.256;22.478;2023-03-20T10:20:27;32.45;;;20.30;;
26742;SDS011;14341;51.256;22.478;2023-03-20T10:23:38;37.95;;;22.33;;
26742;SDS011;14341;51.256;22.478;2023-03-20T10:26:45;35.67;;;21.05;;
26742;SDS011;14341;51.256;22.478;2023-03-20T10:29:55;34.15;;;21.42;;
26742;SDS011;14341;51.256;22.478;2023-03-20T10:33:10;38.50;;;21.70;;
26742;SDS011;14341;51.256;22.478;2023-03-20T10:36:29;35.65;;;21.95;;
26742;SDS011;14341;51.256;22.478;2023-03-20T10:39:50;32.75;;;20.95;;
26742;SDS011;14341;51.256;22.478;2023-03-20T10:43:02;36.70;;;22.10;;
26742;SDS011;14341;51.256;22.478;2023-03-20T10:46:08;36.10;;;22.70;;
26742;SDS011;14341;51.256;22.478;2023-03-20T10:49:16;36.55;;;21.90;;
26742;SDS011;14341;51.256;22.478;2023-03-20T10:52:24;43.28;;;26.58;;
26742;SDS011;14341;51.256;22.478;2023-03-20T10:55:30;42.60;;;26.25;;
26742;SDS011;14341;51.256;22.478;2023-03-20T10:58:36;43.42;;;26.55;;
26742;SDS011;14341;51.256;22.478;2023-03-20T11:01:43;44.60;;;27.02;;
26742;SDS011;14341;51.256;22.478;2023-03-20T11:04:47;49.63;;;31.65;;
26742;SDS011;14341;51.256;22.478;2023-03-20T11:07:59;47.65;;;28.65;;
26742;SDS011;14341;51.256;22.478;2023-03-20T11:11:04;46.42;;;29.70;;
26742;SDS011;14341;51.256;22.478;2023-03-20T11:14:08;48.33;;;29.70;;
26742;SDS011;14341;51.256;22.478;2023-03-20T11:17:19;51.03;;;29.10;;
26742;SDS011;14341;51.256;22.478;2023-03-20T11:20:24;53.28;;;32.35;;
26742;SDS011;14341;51.256;22.478;2023-03-20T11:23:31;42.78;;;26.42;;
26742;SDS011;14341;51.256;22.478;2023-03-20T11:26:36;44.47;;;24.73;;
26742;SDS011;14341;51.256;22.478;2023-03-20T11:29:41;42.00;;;26.23;;
26742;SDS011;14341;51.256;22.478;2023-03-20T11:32:48;39.53;;;25.48;;
26742;SDS011;14341;51.256;22.478;2023-03-20T11:35:55;47.17;;;27.73;;
26742;SDS011;14341;51.256;22.478;2023-03-20T11:39:01;45.30;;;28.08;;
26742;SDS011;14341;51.256;22.478;2023-03-20T11:42:20;43.22;;;26.58;;
26742;SDS011;14341;51.256;22.478;2023-03-20T11:45:26;46.08;;;25.55;;
26742;SDS011;14341;51.256;22.478;2023-03-20T11:51:42;43.88;;;25.80;;
26742;SDS011;14341;51.256;22.478;2023-03-20T11:54:46;41.33;;;25.85;;
26742;SDS011;14341;51.256;22.478;2023-03-20T11:57:54;42.85;;;26.02;;
26742;SDS011;14341;51.256;22.478;2023-03-20T12:00:59;42.67;;;25.77;;
26742;SDS011;14341;51.256;22.478;2023-03-20T12:04:04;42.53;;;25.88;;
26742;SDS011;14341;51.256;22.478;2023-03-20T12:07:12;40.08;;;23.60;;
26742;SDS011;14341;51.256;22.478;2023-03-20T12:10:18;42.83;;;26.15;;
26742;SDS011;14341;51.256;22.478;2023-03-20T12:13:23;41.10;;;23.90;;
26742;SDS011;14341;51.256;22.478;2023-03-20T12:16:31;40.03;;;23.05;;
26742;SDS011;14341;51.256;22.478;2023-03-20T12:19:38;38.47;;;23.67;;
26742;SDS011;14341;51.256;22.478;2023-03-20T12:22:48;40.67;;;23.88;;
26742;SDS011;14341;51.256;22.478;2023-03-20T12:25:56;44.13;;;25.30;;
26742;SDS011;14341;51.256;22.478;2023-03-20T12:29:06;25.00;;;16.43;;
26742;SDS011;14341;51.256;22.478;2023-03-20T12:32:16;36.50;;;22.55;;
26742;SDS011;14341;51.256;22.478;2023-03-20T12:35:25;42.05;;;22.92;;
26742;SDS011;14341;51.256;22.478;2023-03-20T12:38:32;36.05;;;19.88;;
26742;SDS011;14341;51.256;22.478;2023-03-20T12:41:37;35.80;;;21.20;;
26742;SDS011;14341;51.256;22.478;2023-03-20T12:44:45;32.55;;;19.60;;
26742;SDS011;14341;51.256;22.478;2023-03-20T12:48:01;34.85;;;21.05;;
26742;SDS011;14341;51.256;22.478;2023-03-20T12:51:18;33.55;;;21.55;;
26742;SDS011;14341;51.256;22.478;2023-03-20T12:54:36;38.88;;;23.17;;
26742;SDS011;14341;51.256;22.478;2023-03-20T12:58:10;36.83;;;23.13;;
26742;SDS011;14341;51.256;22.478;2023-03-20T13:01:25;38.38;;;23.77;;
26742;SDS011;14341;51.256;22.478;2023-03-20T13:04:44;37.38;;;24.58;;
26742;SDS011;14341;51.256;22.478;2023-03-20T13:08:01;40.60;;;24.33;;
26742;SDS011;14341;51.256;22.478;2023-03-20T13:11:16;42.37;;;23.50;;
26742;SDS011;14341;51.256;22.478;2023-03-20T13:14:31;41.85;;;24.00;;
26742;SDS011;14341;51.256;22.478;2023-03-20T13:17:41;47.58;;;26.75;;
26742;SDS011;14341;51.256;22.478;2023-03-20T13:20:49;39.72;;;25.90;;
26742;SDS011;14341;51.256;22.478;2023-03-20T13:23:55;40.72;;;25.08;;
26742;SDS011;14341;51.256;22.478;2023-03-20T13:27:12;41.65;;;24.60;;
26742;SDS011;14341;51.256;22.478;2023-03-20T13:30:28;36.60;;;22.50;;
26742;SDS011;14341;51.256;22.478;2023-03-20T13:33:40;37.17;;;22.63;;
26742;SDS011;14341;51.256;22.478;2023-03-20T13:36:53;36.45;;;24.05;;
26742;SDS011;14341;51.256;22.478;2023-03-20T13:40:23;39.30;;;23.00;;
26742;SDS011;14341;51.256;22.478;2023-03-20T13:43:31;35.15;;;22.10;;
26742;SDS011;14341;51.256;22.478;2023-03-20T13:46:38;34.85;;;22.25;;
26742;SDS011;14341;51.256;22.478;2023-03-20T13:49:46;39.88;;;23.17;;
26742;SDS011;14341;51.256;22.478;2023-03-20T13:52:57;32.50;;;19.67;;
26742;SDS011;14341;51.256;22.478;2023-03-20T13:56:07;33.38;;;19.30;;
26742;SDS011;14341;51.256;22.478;2023-03-20T14:03:02;32.60;;;18.13;;
26742;SDS011;14341;51.256;22.478;2023-03-20T14:06:16;25.40;;;17.27;;
26742;SDS011;14341;51.256;22.478;2023-03-20T14:09:40;27.90;;;18.02;;
26742;SDS011;14341;51.256;22.478;2023-03-20T14:12:43;29.10;;;17.00;;
26742;SDS011;14341;51.256;22.478;2023-03-20T14:15:54;28.45;;;17.75;;
26742;SDS011;14341;51.256;22.478;2023-03-20T14:19:08;29.35;;;19.13;;
26742;SDS011;14341;51.256;22.478;2023-03-20T14:22:19;31.95;;;20.35;;
26742;SDS011;14341;51.256;22.478;2023-03-20T14:25:24;29.00;;;18.80;;
26742;SDS011;14341;51.256;22.478;2023-03-20T14:28:29;36.08;;;20.30;;
26742;SDS011;14341;51.256;22.478;2023-03-20T14:31:48;29.73;;;19.60;;
26742;SDS011;14341;51.256;22.478;2023-03-20T14:34:57;30.27;;;19.77;;
26742;SDS011;14341;51.256;22.478;2023-03-20T14:38:08;33.90;;;21.58;;
26742;SDS011;14341;51.256;22.478;2023-03-20T14:41:23;34.83;;;20.65;;
26742;SDS011;14341;51.256;22.478;2023-03-20T14:44:37;34.72;;;22.38;;
26742;SDS011;14341;51.256;22.478;2023-03-20T14:47:54;38.72;;;23.10;;
26742;SDS011;14341;51.256;22.478;2023-03-20T14:51:11;36.15;;;22.42;;
26742;SDS011;14341;51.256;22.478;2023-03-20T14:54:23;34.17;;;22.42;;
26742;SDS011;14341;51.256;22.478;2023-03-20T14:57:29;93.00;;;33.13;;
26742;SDS011;14341;51.256;22.478;2023-03-20T15:00:53;45.05;;;27.58;;
26742;SDS011;14341;51.256;22.478;2023-03-20T15:03:59;46.47;;;27.80;;
26742;SDS011;14341;51.256;22.478;2023-03-20T15:07:12;47.25;;;29.13;;
26742;SDS011;14341;51.256;22.478;2023-03-20T15:10:17;45.63;;;27.38;;
26742;SDS011;14341;51.256;22.478;2023-03-20T15:13:21;43.17;;;27.23;;
26742;SDS011;14341;51.256;22.478;2023-03-20T15:16:27;41.38;;;26.63;;
26742;SDS011;14341;51.256;22.478;2023-03-20T15:19:33;46.58;;;29.63;;
26742;SDS011;14341;51.256;22.478;2023-03-20T15:22:47;48.97;;;30.98;;
26742;SDS011;14341;51.256;22.478;2023-03-20T15:25:53;53.83;;;32.35;;
26742;SDS011;14341;51.256;22.478;2023-03-20T15:28:58;53.83;;;34.75;;
26742;SDS011;14341;51.256;22.478;2023-03-20T15:32:03;54.40;;;34.25;;
26742;SDS011;14341;51.256;22.478;2023-03-20T15:35:16;49.83;;;34.55;;
26742;SDS011;14341;51.256;22.478;2023-03-20T15:38:25;55.58;;;34.97;;
26742;SDS011;14341;51.256;22.478;2023-03-20T15:41:33;52.22;;;34.00;;
26742;SDS011;14341;51.256;22.478;2023-03-20T15:44:39;48.15;;;33.65;;
26742;SDS011;14341;51.256;22.478;2023-03-20T15:47:45;53.75;;;34.47;;
26742;SDS011;14341;51.256;22.478;2023-03-20T15:50:50;57.70;;;36.75;;
26742;SDS011;14341;51.256;22.478;2023-03-20T15:53:57;58.88;;;37.83;;
26742;SDS011;14341;51.256;22.478;2023-03-20T15:57:00;63.42;;;41.70;;
26742;SDS011;14341;51.256;22.478;2023-03-20T16:00:04;64.85;;;42.97;;
26742;SDS011;14341;51.256;22.478;2023-03-20T16:03:12;64.30;;;43.88;;
26742;SDS011;14341;51.256;22.478;2023-03-20T16:06:21;69.15;;;50.40;;
26742;SDS011;14341;51.256;22.478;2023-03-20T16:09:27;120.88;;;105.72;;
26742;SDS011;14341;51.256;22.478;2023-03-20T16:12:31;91.55;;;76.68;;
26742;SDS011;14341;51.256;22.478;2023-03-20T16:15:34;70.13;;;57.13;;
26742;SDS011;14341;51.256;22.478;2023-03-20T16:18:38;66.15;;;55.40;;
26742;SDS011;14341;51.256;22.478;2023-03-20T16:21:45;70.00;;;56.58;;
26742;SDS011;14341;51.256;22.478;2023-03-20T16:24:53;80.03;;;63.17;;
26742;SDS011;14341;51.256;22.478;2023-03-20T16:27:59;99.22;;;74.00;;
26742;SDS011;14341;51.256;22.478;2023-03-20T16:31:06;83.88;;;51.88;;
26742;SDS011;14341;51.256;22.478;2023-03-20T16:34:14;91.15;;;61.58;;
26742;SDS011;14341;51.256;22.478;2023-03-20T16:37:23;84.45;;;50.50;;
26742;SDS011;14341;51.256;22.478;2023-03-20T16:40:29;83.60;;;51.03;;
26742;SDS011;14341;51.256;22.478;2023-03-20T16:43:35;86.05;;;54.20;;
26742;SDS011;14341;51.256;22.478;2023-03-20T16:46:52;103.25;;;72.95;;
26742;SDS011;14341;51.256;22.478;2023-03-20T16:53:21;90.43;;;57.28;;
26742;SDS011;14341;51.256;22.478;2023-03-20T16:56:26;115.22;;;90.15;;
26742;SDS011;14341;51.256;22.478;2023-03-20T16:59:36;69.07;;;46.47;;
26742;SDS011;14341;51.256;22.478;2023-03-20T17:02:40;78.03;;;51.65;;
26742;SDS011;14341;51.256;22.478;2023-03-20T17:05:47;74.72;;;48.42;;
26742;SDS011;14341;51.256;22.478;2023-03-20T17:08:55;83.88;;;57.55;;
26742;SDS011;14341;51.256;22.478;2023-03-20T17:12:03;196.80;;;174.20;;
26742;SDS011;14341;51.256;22.478;2023-03-20T17:15:14;105.80;;;83.43;;
26742;SDS011;14341;51.256;22.478;2023-03-20T17:18:19;113.03;;;89.93;;
26742;SDS011;14341;51.256;22.478;2023-03-20T17:21:22;157.80;;;135.20;;
26742;SDS011;14341;51.256;22.478;2023-03-20T17:24:27;141.13;;;123.40;;
26742;SDS011;14341;51.256;22.478;2023-03-20T17:27:30;290.73;;;264.08;;
26742;SDS011;14341;51.256;22.478;2023-03-20T17:30:34;303.75;;;203.90;;
26742;SDS011;14341;51.256;22.478;2023-03-20T17:33:38;224.70;;;204.38;;
26742;SDS011;14341;51.256;22.478;2023-03-20T17:36:42;270.98;;;246.18;;
26742;SDS011;14341;51.256;22.478;2023-03-20T17:39:47;241.40;;;218.93;;
26742;SDS011;14341;51.256;22.478;2023-03-20T17:42:50;189.63;;;171.73;;
26742;SDS011;14341;51.256;22.478;2023-03-20T17:45:54;222.88;;;203.07;;
26742;SDS011;14341;51.256;22.478;2023-03-20T17:48:59;155.65;;;140.30;;
26742;SDS011;14341;51.256;22.478;2023-03-20T17:52:08;144.55;;;121.25;;
26742;SDS011;14341;51.256;22.478;2023-03-20T17:55:15;102.60;;;81.38;;
26742;SDS011;14341;51.256;22.478;2023-03-20T17:58:19;120.38;;;99.75;;
26742;SDS011;14341;51.256;22.478;2023-03-20T18:01:24;100.38;;;81.32;;
26742;SDS011;14341;51.256;22.478;2023-03-20T18:04:30;113.60;;;83.47;;
26742;SDS011;14341;51.256;22.478;2023-03-20T18:07:34;107.38;;;79.55;;
26742;SDS011;14341;51.256;22.478;2023-03-20T18:10:40;103.85;;;66.55;;
26742;SDS011;14341;51.256;22.478;2023-03-20T18:13:44;114.80;;;76.65;;
26742;SDS011;14341;51.256;22.478;2023-03-20T18:16:47;100.93;;;66.45;;
26742;SDS011;14341;51.256;22.478;2023-03-20T18:19:51;127.22;;;100.10;;
26742;SDS011;14341;51.256;22.478;2023-03-20T18:22:54;116.38;;;87.93;;
26742;SDS011;14341;51.256;22.478;2023-03-20T18:26:00;94.05;;;74.68;;